Bunny C — WDH8056 — position and weather

sailwx.info

Track history (hours):
 
Tides and Currents Weather Stations Pressure Air Temp Water Temp Dewpoint Dewpoint Depression Visibility Wind Speed Wind Dir Waves Ship Positions

Bunny C

Owner: Crofton Diving Corp., Portsmouth, VA. More information available from US FCC via Universal Licensing System.

Last reported at 2017-Oct-17 05:30 UTC. Time now 2017-Oct-17 05:39 UTC.
Position N 36°51' W 076°19'.

Length 18 m; draft 2.5 m.

Type: Tug. MMSI: 338139461.

Date/timePositionNaut miles runAvg speedWind from/ knotsBaromVisibWave heightAir tempDewpointWater temp
2017-Oct-17 05:30N 36°51' W 076°19'0 0.0
2017-Oct-17 05:00N 36°51' W 076°19'0 0.0
2017-Oct-17 04:30N 36°51' W 076°19'0 0.0
2017-Oct-17 04:00N 36°51' W 076°19'0 0.0
2017-Oct-17 03:30N 36°51' W 076°19'0 0.0
2017-Oct-17 03:00N 36°51' W 076°19'0 0.0
2017-Oct-17 02:30N 36°51' W 076°19'0 0.0
2017-Oct-17 02:00N 36°51' W 076°19'0 0.0
2017-Oct-17 01:30N 36°51' W 076°19'0 0.0
2017-Oct-17 01:00N 36°51' W 076°19'0 0.0
2017-Oct-17 00:30N 36°51' W 076°19'0 0.0
2017-Oct-17 00:00N 36°51' W 076°19'0 0.0
2017-Oct-16 23:30N 36°51' W 076°19'0 0.0
2017-Oct-16 23:00N 36°51' W 076°19'0 0.0
2017-Oct-16 22:30N 36°51' W 076°19'0 0.0
2017-Oct-16 22:00N 36°51' W 076°19'0 0.0
2017-Oct-16 21:30N 36°51' W 076°19'0 0.0
2017-Oct-16 21:00N 36°51' W 076°19'0 0.0
2017-Oct-16 20:30N 36°51' W 076°19'0 0.0
2017-Oct-16 20:00N 36°51' W 076°19'2 4.9
2017-Oct-16 19:30N 36°49' W 076°17'212.4
2017-Oct-16 19:19N 36°51' W 076°19'0 0.4
2017-Oct-16 19:00N 36°51' W 076°19'312485.5
2017-Oct-16 19:00N 36°47' W 076°18'4 7.6
2017-Oct-16 18:30N 36°51' W 076°18'2572.4
2017-Oct-16 18:30N 36°50' W 076°18'2 3.1
2017-Oct-16 18:00N 36°51' W 076°18'021.8
2017-Oct-16 18:00N 36°51' W 076°18'0 0.0
2017-Oct-16 17:30N 36°51' W 076°18'087.1
2017-Oct-16 17:30N 36°51' W 076°18'0 0.1
2017-Oct-16 17:00N 36°51' W 076°18'0 0.0
2017-Oct-16 16:30N 36°51' W 076°18'26658.0
2017-Oct-16 16:30N 36°49' W 076°17'2 3.7
2017-Oct-16 16:00N 36°51' W 076°18'0 0.0
2017-Oct-16 15:30N 36°51' W 076°18'072.2
2017-Oct-16 15:30N 36°51' W 076°18'0 0.1
2017-Oct-16 15:00N 36°51' W 076°18'064.8
2017-Oct-16 15:00N 36°51' W 076°18'0 0.0
2017-Oct-16 14:30N 36°51' W 076°18'0 0.1
2017-Oct-16 14:00N 36°51' W 076°18'0 0.0
2017-Oct-16 13:30N 36°51' W 076°18'0 2.7
2017-Oct-16 13:29N 36°51' W 076°18'0 0.1
2017-Oct-16 13:00N 36°51' W 076°18'0195.2
2017-Oct-16 13:00N 36°51' W 076°18'0 0.1
2017-Oct-16 12:30N 36°51' W 076°18'0194.4
2017-Oct-16 12:30N 36°51' W 076°18'0 0.1
2017-Oct-16 12:00N 36°51' W 076°18'2480.8
2017-Oct-16 12:00N 36°50' W 076°17'2 3.7
2017-Oct-16 11:30N 36°51' W 076°19'0143.3
2017-Oct-16 11:30N 36°51' W 076°19'0 0.0
2017-Oct-16 11:00N 36°51' W 076°19'0 0.0
2017-Oct-16 08:38N 36°51' W 076°19'0 0.0
2017-Oct-16 08:21N 36°51' W 076°19'0 0.0
2017-Oct-16 07:55N 36°51' W 076°19'0 0.0
2017-Oct-16 07:21N 36°51' W 076°19'0 0.0
2017-Oct-16 06:56N 36°51' W 076°19'0 0.0
2017-Oct-16 03:35N 36°51' W 076°19'0 0.0
2017-Oct-15 20:53N 36°51' W 076°19'0 0.0
2017-Oct-15 14:40N 36°51' W 076°19'0 0.0
2017-Oct-15 06:39N 36°51' W 076°19'0 0.0
2017-Oct-15 06:30N 36°51' W 076°19'0 0.0
2017-Oct-15 03:28N 36°51' W 076°19'0 0.0
2017-Oct-15 02:56N 36°51' W 076°19'0 0.0
2017-Oct-15 02:30N 36°51' W 076°19'0 0.0
2017-Oct-15 01:59N 36°51' W 076°19'0 0.0
2017-Oct-15 01:30N 36°51' W 076°19'0 0.0
2017-Oct-15 00:57N 36°51' W 076°19'0 0.0
2017-Oct-14 21:33N 36°51' W 076°19'0 0.0
2017-Oct-14 21:23N 36°51' W 076°19'0 0.0
2017-Oct-14 20:59N 36°51' W 076°19'0 0.0
2017-Oct-14 20:28N 36°51' W 076°19'1 2.5
2017-Oct-14 20:00N 36°50' W 076°18'0 0.4
2017-Oct-14 19:30N 36°50' W 076°17'0 0.0
2017-Oct-14 19:00N 36°50' W 076°17'0 0.0
2017-Oct-14 18:30N 36°50' W 076°17'0 0.0
2017-Oct-14 18:00N 36°50' W 076°17'0 0.0
2017-Oct-14 17:30N 36°50' W 076°17'1 1.9
2017-Oct-14 17:00N 36°51' W 076°18'0 0.2
2017-Oct-14 16:30N 36°51' W 076°18'1 1.4
2017-Oct-14 16:00N 36°51' W 076°19'0 0.0
2017-Oct-14 15:30N 36°51' W 076°19'0 0.0
2017-Oct-14 15:00N 36°51' W 076°19'0 0.0
2017-Oct-14 14:30N 36°51' W 076°19'0 0.0
2017-Oct-14 14:00N 36°51' W 076°19'0 0.0
2017-Oct-14 13:30N 36°51' W 076°19'0 0.0
2017-Oct-14 13:00N 36°51' W 076°19'0 0.0
2017-Oct-14 12:30N 36°51' W 076°19'0 0.0
2017-Oct-14 12:00N 36°51' W 076°19'0 0.0
2017-Oct-14 11:30N 36°51' W 076°19'0 0.0
2017-Oct-14 11:00N 36°51' W 076°19'0 0.0
2017-Oct-14 10:30N 36°51' W 076°19'0 0.0
2017-Oct-14 10:00N 36°51' W 076°19'0 0.0
2017-Oct-14 09:30N 36°51' W 076°19'0 0.0
2017-Oct-14 09:00N 36°51' W 076°19'0 0.0
2017-Oct-14 08:30N 36°51' W 076°19'0 0.0
2017-Oct-14 08:00N 36°51' W 076°19'0 0.0
2017-Oct-14 07:30N 36°51' W 076°19'0 0.0
2017-Oct-14 07:00N 36°51' W 076°19'0 0.0
2017-Oct-14 06:30N 36°51' W 076°19'0 0.0
2017-Oct-14 06:00N 36°51' W 076°19'0 0.0
2017-Oct-14 05:30N 36°51' W 076°19'0 0.0
2017-Oct-14 05:00N 36°51' W 076°19'0 0.0
2017-Oct-14 04:30N 36°51' W 076°19'0 0.0
2017-Oct-14 04:00N 36°51' W 076°19'0 0.0
2017-Oct-14 03:30N 36°51' W 076°19'0 0.0
2017-Oct-14 03:00N 36°51' W 076°19'0 0.0
2017-Oct-14 02:30N 36°51' W 076°19'0 0.0
2017-Oct-14 02:00N 36°51' W 076°19'0 0.0
2017-Oct-14 01:26N 36°51' W 076°19'0 0.0
2017-Oct-14 01:00N 36°51' W 076°19'0 0.0
2017-Oct-14 00:20N 36°51' W 076°19'0 0.0
2017-Oct-13 23:59N 36°51' W 076°19'0 0.0
2017-Oct-13 23:30N 36°51' W 076°19'0 0.0
2017-Oct-13 23:00N 36°51' W 076°19'0 0.0
2017-Oct-13 22:30N 36°51' W 076°19'0 0.0
2017-Oct-13 22:00N 36°51' W 076°19'0 0.0
2017-Oct-13 21:30N 36°51' W 076°19'0 0.0
2017-Oct-13 21:00N 36°51' W 076°19'0 0.0
2017-Oct-13 20:30N 36°51' W 076°19'0 0.0
2017-Oct-13 20:00N 36°51' W 076°19'0 0.6
2017-Oct-13 19:41N 36°51' W 076°19'1 5.0
2017-Oct-13 19:31N 36°51' W 076°18'11179.9
2017-Oct-13 19:30N 36°51' W 076°19'2 3.8
2017-Oct-13 19:00N 36°49' W 076°17'282.0
2017-Oct-13 18:59N 36°51' W 076°19'0 0.8
2017-Oct-13 18:30N 36°51' W 076°18'0266.6
2017-Oct-13 18:30N 36°51' W 076°18'0 0.1
2017-Oct-13 18:01N 36°51' W 076°18'030.4
2017-Oct-13 18:00N 36°51' W 076°18'0 0.1
2017-Oct-13 17:31N 36°51' W 076°18'0 3.1
2017-Oct-13 17:30N 36°51' W 076°18'1 1.5
2017-Oct-13 17:01N 36°52' W 076°19'010.8
2017-Oct-13 17:00N 36°52' W 076°19'0 0.1
2017-Oct-13 16:31N 36°52' W 076°19'096.6
2017-Oct-13 16:31N 36°52' W 076°19'0 0.0
2017-Oct-13 16:01N 36°52' W 076°19'0 0.0
2017-Oct-13 15:31N 36°52' W 076°19'0 0.1
2017-Oct-13 15:00N 36°52' W 076°19'0 2.8
2017-Oct-13 15:00N 36°52' W 076°19'0 0.1
2017-Oct-13 14:30N 36°52' W 076°19'0122.2
2017-Oct-13 14:30N 36°52' W 076°19'0 0.9
2017-Oct-13 14:00N 36°51' W 076°18'0 5.1
2017-Oct-13 14:00N 36°51' W 076°18'0 0.6
2017-Oct-13 13:31N 36°51' W 076°18'0 9.5
2017-Oct-13 13:30N 36°51' W 076°18'0 0.1
2017-Oct-13 13:00N 36°51' W 076°18'094.8
2017-Oct-13 13:00N 36°51' W 076°18'0 0.1
2017-Oct-13 12:31N 36°51' W 076°18'094.8
2017-Oct-13 12:31N 36°51' W 076°18'0 0.0
2017-Oct-13 12:01N 36°51' W 076°18'056.8
2017-Oct-13 12:00N 36°51' W 076°18'1 1.5
2017-Oct-13 11:30N 36°51' W 076°19'0 0.0
2017-Oct-13 11:01N 36°51' W 076°19'0 0.0
2017-Oct-13 10:30N 36°51' W 076°19'0 0.0
2017-Oct-13 10:01N 36°51' W 076°19'0 0.0
2017-Oct-13 09:30N 36°51' W 076°19'0 0.0
2017-Oct-13 09:00N 36°51' W 076°19'0 0.0
2017-Oct-13 08:30N 36°51' W 076°19'0 0.0
2017-Oct-13 08:01N 36°51' W 076°19'0 0.0
2017-Oct-13 07:31N 36°51' W 076°19'0 0.0
2017-Oct-13 07:01N 36°51' W 076°19'0 0.0
2017-Oct-13 06:31N 36°51' W 076°19'0 0.0
2017-Oct-13 06:01N 36°51' W 076°19'0 0.0
2017-Oct-13 05:30N 36°51' W 076°19'0 0.0
2017-Oct-13 05:01N 36°51' W 076°19'0 0.0
2017-Oct-13 04:30N 36°51' W 076°19'0 0.0
2017-Oct-13 04:00N 36°51' W 076°19'0 0.0
2017-Oct-13 03:31N 36°51' W 076°19'0 0.0
2017-Oct-13 03:01N 36°51' W 076°19'0 0.0
2017-Oct-13 02:30N 36°51' W 076°19'0 0.0
2017-Oct-13 02:00N 36°51' W 076°19'0 0.0
2017-Oct-13 01:31N 36°51' W 076°19'0 0.0
2017-Oct-13 01:01N 36°51' W 076°19'0 0.0
2017-Oct-13 00:31N 36°51' W 076°19'0 0.0
2017-Oct-13 00:00N 36°51' W 076°19'0 0.0
2017-Oct-12 23:30N 36°51' W 076°19'0 0.0
2017-Oct-12 23:00N 36°51' W 076°19'0 0.0
2017-Oct-12 22:30N 36°51' W 076°19'0 0.0
2017-Oct-12 22:01N 36°51' W 076°19'0 0.0
2017-Oct-12 21:30N 36°51' W 076°19'0 0.0
2017-Oct-12 21:00N 36°51' W 076°19'0 0.0
2017-Oct-12 20:31N 36°51' W 076°19'0 0.0
2017-Oct-12 20:00N 36°51' W 076°19'220.1
2017-Oct-12 19:55N 36°49' W 076°17'0 0.0
2017-Oct-12 19:31N 36°49' W 076°17'2688.4
2017-Oct-12 19:30N 36°51' W 076°19'2 3.9
2017-Oct-12 19:01N 36°49' W 076°17'2 3.8
2017-Oct-12 18:31N 36°51' W 076°19'0 0.0
2017-Oct-12 18:01N 36°51' W 076°19'0 0.0
2017-Oct-12 17:31N 36°51' W 076°19'0 0.0
2017-Oct-12 17:01N 36°51' W 076°19'0 0.0
2017-Oct-12 16:31N 36°51' W 076°19'0 0.0
2017-Oct-12 16:01N 36°51' W 076°19'0 0.0
2017-Oct-12 15:31N 36°51' W 076°19'218.1
2017-Oct-12 15:24N 36°49' W 076°17'0 0.0
2017-Oct-12 15:00N 36°49' W 076°17'2982.7
2017-Oct-12 15:00N 36°51' W 076°19'2 3.8
2017-Oct-12 14:30N 36°49' W 076°17'2984.9
2017-Oct-12 14:30N 36°51' W 076°19'0 0.0
2017-Oct-12 14:01N 36°51' W 076°19'23441.4
2017-Oct-12 14:00N 36°49' W 076°17'0 0.0
2017-Oct-12 13:30N 36°49' W 076°17'2491.6
2017-Oct-12 13:30N 36°51' W 076°19'2 3.9
2017-Oct-12 13:00N 36°49' W 076°17'21378.8
2017-Oct-12 13:00N 36°51' W 076°19'2 3.8
2017-Oct-12 12:30N 36°49' W 076°17'21374.9
2017-Oct-12 12:30N 36°51' W 076°19'2 3.8
2017-Oct-12 12:01N 36°49' W 076°17'21146.5
2017-Oct-12 12:00N 36°51' W 076°19'1 2.0
2017-Oct-12 11:30N 36°51' W 076°18'1893.5
2017-Oct-12 11:30N 36°51' W 076°19'0 0.0
2017-Oct-12 11:00N 36°51' W 076°19'0 0.0
2017-Oct-12 10:30N 36°51' W 076°19'0 0.0
2017-Oct-12 10:00N 36°51' W 076°19'0 0.0
2017-Oct-12 09:29N 36°51' W 076°19'0 0.0
2017-Oct-12 09:00N 36°51' W 076°19'0 0.0
2017-Oct-12 08:30N 36°51' W 076°19'0 0.0
2017-Oct-12 08:00N 36°51' W 076°19'0 0.0
2017-Oct-12 07:29N 36°51' W 076°19'0 0.0
2017-Oct-12 06:59N 36°51' W 076°19'0 0.0
2017-Oct-12 06:29N 36°51' W 076°19'0 0.0
2017-Oct-11 23:06N 36°51' W 076°19'0 0.0
2017-Oct-11 23:00N 36°51' W 076°19'0 0.0
2017-Oct-11 22:29N 36°51' W 076°19'0 0.0
2017-Oct-11 21:55N 36°51' W 076°19'0 0.0
2017-Oct-11 21:30N 36°51' W 076°19'0 0.0
2017-Oct-11 21:00N 36°51' W 076°19'0 0.0
2017-Oct-11 20:26N 36°51' W 076°19'0 0.0
2017-Oct-11 19:57N 36°51' W 076°19'0 0.1
2017-Oct-11 19:37N 36°51' W 076°19'0 0.2
2017-Oct-11 19:30N 36°51' W 076°19'0 3.4
2017-Oct-11 19:27N 36°51' W 076°19'0 0.4
2017-Oct-11 18:59N 36°51' W 076°19'0 0.0
2017-Oct-11 18:30N 36°51' W 076°19'153.1
2017-Oct-11 18:29N 36°51' W 076°18'1 1.2
2017-Oct-11 17:53N 36°51' W 076°19'12618.3
2017-Oct-11 17:53N 36°51' W 076°18'1 1.9
2017-Oct-11 17:30N 36°51' W 076°19'152.1
2017-Oct-11 17:30N 36°51' W 076°18'1 1.5
2017-Oct-11 17:00N 36°51' W 076°19'121.3
2017-Oct-11 16:58N 36°51' W 076°18'1 0.0
2017-Oct-11 00:00N 36°51' W 076°19'0 0.3
2017-Oct-10 23:57N 36°51' W 076°19'0 0.0
2017-Oct-10 23:30N 36°51' W 076°19'0 0.2
2017-Oct-10 23:28N 36°51' W 076°19'0 0.0
2017-Oct-10 23:00N 36°51' W 076°19'0 0.1
2017-Oct-10 22:53N 36°51' W 076°19'0 0.0
2017-Oct-10 22:28N 36°51' W 076°19'0 0.5
2017-Oct-10 22:27N 36°51' W 076°19'0 0.0
2017-Oct-10 22:00N 36°51' W 076°19'0 0.1
2017-Oct-10 21:55N 36°51' W 076°19'0 0.0
2017-Oct-10 21:30N 36°51' W 076°19'0 0.1
2017-Oct-10 21:23N 36°51' W 076°19'0 0.0
2017-Oct-10 20:59N 36°51' W 076°19'0 0.6
2017-Oct-10 20:59N 36°51' W 076°19'0 0.0
2017-Oct-10 20:30N 36°51' W 076°19'0 0.1
2017-Oct-10 20:25N 36°51' W 076°19'0 0.0
2017-Oct-10 19:59N 36°51' W 076°19'0 0.2
2017-Oct-10 19:55N 36°51' W 076°19'0 0.0
2017-Oct-10 19:30N 36°51' W 076°19'010.4
2017-Oct-10 19:30N 36°51' W 076°19'0 0.6
2017-Oct-10 19:00N 36°51' W 076°19'0509.5
2017-Oct-10 19:00N 36°51' W 076°19'0 0.0
2017-Oct-10 18:29N 36°51' W 076°19'1 2.6
2017-Oct-10 18:12N 36°51' W 076°18'0 0.0
2017-Oct-10 17:59N 36°51' W 076°18'1519.2
2017-Oct-10 17:59N 36°51' W 076°19'1 1.5
2017-Oct-10 17:30N 36°51' W 076°18'1860.1
2017-Oct-10 17:30N 36°51' W 076°19'0 0.0
2017-Oct-10 17:00N 36°51' W 076°19'1 5.4
2017-Oct-10 16:52N 36°51' W 076°18'1 2.0
2017-Oct-10 16:30N 36°51' W 076°19'0 0.0
2017-Oct-10 15:55N 36°51' W 076°19'1 2.0
2017-Oct-10 15:34N 36°51' W 076°18'1 9.3
2017-Oct-10 15:30N 36°51' W 076°19'118.3
2017-Oct-10 15:26N 36°50' W 076°18'2 5.2
2017-Oct-10 15:00N 36°48' W 076°17'1 1.2
2017-Oct-10 13:57N 36°49' W 076°17'0 0.0
2017-Oct-10 13:30N 36°49' W 076°17'0 0.1
2017-Oct-10 12:53N 36°49' W 076°17'1 3.4
2017-Oct-10 12:29N 36°48' W 076°17'5 5.5
2017-Oct-10 11:38N 36°52' W 076°20'2 6.0
2017-Oct-10 11:23N 36°51' W 076°19'0 0.3
2017-Oct-10 11:00N 36°51' W 076°19'0 0.0
2017-Oct-10 10:29N 36°51' W 076°19'0 0.0
2017-Oct-10 09:59N 36°51' W 076°19'0 0.0
2017-Oct-10 09:22N 36°51' W 076°19'0 0.0
2017-Oct-10 09:00N 36°51' W 076°19'0 0.0
2017-Oct-10 08:29N 36°51' W 076°19'0 0.0
2017-Oct-10 07:57N 36°51' W 076°19'0 0.0
2017-Oct-10 07:29N 36°51' W 076°19'0 0.0
2017-Oct-10 06:59N 36°51' W 076°19'0 0.0
2017-Oct-10 06:31N 36°51' W 076°19'3 0.1
2017-Oct-09 06:16N 36°48' W 076°17'35555.5
2017-Oct-09 06:16N 36°51' W 076°19'0 0.0
2017-Oct-09 04:37N 36°51' W 076°19'31388.9
2017-Oct-09 04:37N 36°48' W 076°17'0 0.0
2017-Oct-09 04:29N 36°48' W 076°17'3 6.1
2017-Oct-09 03:59N 36°51' W 076°19'3236.4
2017-Oct-09 03:58N 36°48' W 076°17'3 6.8
2017-Oct-09 03:31N 36°51' W 076°19'31010.1
2017-Oct-09 03:30N 36°48' W 076°17'0 0.0
2017-Oct-09 02:56N 36°48' W 076°17'3150.3
2017-Oct-09 02:55N 36°51' W 076°19'0 0.0
2017-Oct-09 02:29N 36°51' W 076°19'342.0
2017-Oct-09 02:24N 36°48' W 076°17'0 0.0
2017-Oct-09 01:59N 36°48' W 076°17'311130.4
2017-Oct-09 01:59N 36°51' W 076°19'0 0.0
2017-Oct-09 01:28N 36°51' W 076°19'3241.4
2017-Oct-09 01:27N 36°48' W 076°17'3 6.5
2017-Oct-09 00:59N 36°51' W 076°19'3113.3
2017-Oct-09 00:57N 36°48' W 076°17'3 6.9
2017-Oct-09 00:30N 36°51' W 076°19'333.1
2017-Oct-09 00:25N 36°48' W 076°17'0 0.0
2017-Oct-09 00:00N 36°48' W 076°17'311103.4
2017-Oct-09 00:00N 36°51' W 076°19'0 0.0
2017-Oct-08 23:28N 36°51' W 076°19'326.5
2017-Oct-08 23:21N 36°48' W 076°17'3 8.8
2017-Oct-08 23:00N 36°51' W 076°19'393.4
2017-Oct-08 22:58N 36°48' W 076°17'3 6.4
2017-Oct-08 22:29N 36°51' W 076°19'338.2
2017-Oct-08 22:24N 36°48' W 076°17'3 7.6
2017-Oct-08 22:00N 36°51' W 076°19'31589.0
2017-Oct-08 22:00N 36°48' W 076°17'3 6.4
2017-Oct-08 21:30N 36°51' W 076°19'330.2
2017-Oct-08 21:24N 36°48' W 076°17'0 0.0
2017-Oct-08 21:00N 36°48' W 076°17'3483.1
2017-Oct-08 21:00N 36°51' W 076°19'0 0.0
2017-Oct-08 20:30N 36°51' W 076°19'325.8
2017-Oct-08 20:23N 36°48' W 076°17'3 8.3
2017-Oct-08 20:01N 36°51' W 076°19'0 0.0
2017-Oct-08 19:26N 36°51' W 076°19'3161.4
2017-Oct-08 19:25N 36°48' W 076°17'3 7.5
2017-Oct-08 19:00N 36°51' W 076°19'311103.4
2017-Oct-08 19:00N 36°48' W 076°17'0 0.0
2017-Oct-08 18:30N 36°48' W 076°17'311103.4
2017-Oct-08 18:30N 36°51' W 076°19'0 0.0
2017-Oct-08 18:00N 36°51' W 076°19'3138.8
2017-Oct-08 17:59N 36°48' W 076°17'0 0.0
2017-Oct-08 17:31N 36°48' W 076°17'311084.0
2017-Oct-08 17:31N 36°51' W 076°19'0 0.0
2017-Oct-08 16:58N 36°51' W 076°19'3138.9
2017-Oct-08 16:57N 36°48' W 076°17'3 7.1
2017-Oct-08 16:31N 36°51' W 076°19'2157.4
2017-Oct-08 16:30N 36°49' W 076°17'2 4.1
2017-Oct-08 15:59N 36°51' W 076°19'115.1
2017-Oct-08 15:54N 36°50' W 076°18'1 3.0
2017-Oct-08 15:29N 36°51' W 076°19'223.8
2017-Oct-08 15:25N 36°50' W 076°18'2 3.8
2017-Oct-08 15:00N 36°51' W 076°19'0 0.0
2017-Oct-08 14:29N 36°51' W 076°19'0 0.0
2017-Oct-08 14:00N 36°51' W 076°19'0 0.0
2017-Oct-08 13:28N 36°51' W 076°19'0 0.0
2017-Oct-08 13:00N 36°51' W 076°19'1 2.3
2017-Oct-08 12:28N 36°50' W 076°19'1 2.6
2017-Oct-08 12:00N 36°51' W 076°19'0 0.0
2017-Oct-08 11:28N 36°51' W 076°19'0 0.0
2017-Oct-08 11:01N 36°51' W 076°19'0 0.0
2017-Oct-08 10:25N 36°51' W 076°19'0 0.0
2017-Oct-08 10:00N 36°51' W 076°19'0 0.0
2017-Oct-08 09:30N 36°51' W 076°19'0 0.0
2017-Oct-08 08:57N 36°51' W 076°19'0 0.0
2017-Oct-08 08:30N 36°51' W 076°19'0 0.0
2017-Oct-08 07:59N 36°51' W 076°19'0 0.0
2017-Oct-08 07:29N 36°51' W 076°19'0 0.0
2017-Oct-08 06:59N 36°51' W 076°19'0 0.0
2017-Oct-08 06:30N 36°51' W 076°19'0 0.0
2017-Oct-08 05:58N 36°51' W 076°19'0 0.0
2017-Oct-08 05:25N 36°51' W 076°19'0 0.0
2017-Oct-07 22:38N 36°51' W 076°19'0 0.0
2017-Oct-07 22:26N 36°51' W 076°19'0 0.0
2017-Oct-07 22:00N 36°51' W 076°19'0 0.0
2017-Oct-07 21:31N 36°51' W 076°19'3 9.4
2017-Oct-07 21:11N 36°48' W 076°17'318.6
2017-Oct-07 21:00N 36°51' W 076°19'31861.4
2017-Oct-07 21:00N 36°48' W 076°17'3 6.2
2017-Oct-07 20:31N 36°51' W 076°19'0 0.0
2017-Oct-07 20:01N 36°51' W 076°19'0 0.0
2017-Oct-07 19:31N 36°51' W 076°19'0 0.0
2017-Oct-07 19:01N 36°51' W 076°19'0 0.0
2017-Oct-07 18:31N 36°51' W 076°19'0 0.0
2017-Oct-07 18:01N 36°51' W 076°19'0 0.0
2017-Oct-07 17:31N 36°51' W 076°19'0 0.0
2017-Oct-07 17:01N 36°51' W 076°19'0 0.0
2017-Oct-07 16:31N 36°51' W 076°19'0 0.0
2017-Oct-07 16:01N 36°51' W 076°19'0 0.0
2017-Oct-07 15:30N 36°51' W 076°19'0 0.0
2017-Oct-07 15:01N 36°51' W 076°19'0 0.0
2017-Oct-07 14:30N 36°51' W 076°19'0 0.0
2017-Oct-07 14:01N 36°51' W 076°19'0 0.0
2017-Oct-07 13:31N 36°51' W 076°19'0 0.0
2017-Oct-07 13:00N 36°51' W 076°19'0 0.0
2017-Oct-07 12:31N 36°51' W 076°19'0 0.0
2017-Oct-07 12:01N 36°51' W 076°19'0 0.0
2017-Oct-07 11:31N 36°51' W 076°19'0 0.0
2017-Oct-07 11:00N 36°51' W 076°19'0 0.0
2017-Oct-07 10:31N 36°51' W 076°19'0 0.0
2017-Oct-07 10:01N 36°51' W 076°19'0 0.0
2017-Oct-07 09:31N 36°51' W 076°19'0 0.0
2017-Oct-07 09:01N 36°51' W 076°19'0 0.0
2017-Oct-07 08:31N 36°51' W 076°19'0 0.0
2017-Oct-07 08:01N 36°51' W 076°19'0 0.0
2017-Oct-07 07:31N 36°51' W 076°19'0 0.0
2017-Oct-07 07:01N 36°51' W 076°19'0 0.0
2017-Oct-07 06:31N 36°51' W 076°19'0 0.0
2017-Oct-07 06:01N 36°51' W 076°19'0 0.0
2017-Oct-07 05:30N 36°51' W 076°19'  
Track history (hours):
 
Tides and Currents Weather Stations Pressure Air Temp Water Temp Dewpoint Dewpoint Depression Visibility Wind Speed Wind Dir Waves Ship Positions

Bunny C

Owner: Crofton Diving Corp., Portsmouth, VA. More information available from US FCC via Universal Licensing System.

Last reported at 2017-Oct-17 05:30 UTC. Time now 2017-Oct-17 05:39 UTC.
Position N 36°51' W 076°19'.

Length 18 m; draft 2.5 m.

Type: Tug. MMSI: 338139461.

Date/timePositionNaut miles runAvg speedWind from/ knotsBaromVisibWave heightAir tempDewpointWater temp
2017-Oct-17 05:30N 36°51' W 076°19'0 0.0
2017-Oct-17 05:00N 36°51' W 076°19'0 0.0
2017-Oct-17 04:30N 36°51' W 076°19'0 0.0
2017-Oct-17 04:00N 36°51' W 076°19'0 0.0
2017-Oct-17 03:30N 36°51' W 076°19'0 0.0
2017-Oct-17 03:00N 36°51' W 076°19'0 0.0
2017-Oct-17 02:30N 36°51' W 076°19'0 0.0
2017-Oct-17 02:00N 36°51' W 076°19'0 0.0
2017-Oct-17 01:30N 36°51' W 076°19'0 0.0
2017-Oct-17 01:00N 36°51' W 076°19'0 0.0
2017-Oct-17 00:30N 36°51' W 076°19'0 0.0
2017-Oct-17 00:00N 36°51' W 076°19'0 0.0
2017-Oct-16 23:30N 36°51' W 076°19'0 0.0
2017-Oct-16 23:00N 36°51' W 076°19'0 0.0
2017-Oct-16 22:30N 36°51' W 076°19'0 0.0
2017-Oct-16 22:00N 36°51' W 076°19'0 0.0
2017-Oct-16 21:30N 36°51' W 076°19'0 0.0
2017-Oct-16 21:00N 36°51' W 076°19'0 0.0
2017-Oct-16 20:30N 36°51' W 076°19'0 0.0
2017-Oct-16 20:00N 36°51' W 076°19'2 4.9
2017-Oct-16 19:30N 36°49' W 076°17'212.4
2017-Oct-16 19:19N 36°51' W 076°19'0 0.4
2017-Oct-16 19:00N 36°51' W 076°19'312485.5
2017-Oct-16 19:00N 36°47' W 076°18'4 7.6
2017-Oct-16 18:30N 36°51' W 076°18'2572.4
2017-Oct-16 18:30N 36°50' W 076°18'2 3.1
2017-Oct-16 18:00N 36°51' W 076°18'021.8
2017-Oct-16 18:00N 36°51' W 076°18'0 0.0
2017-Oct-16 17:30N 36°51' W 076°18'087.1
2017-Oct-16 17:30N 36°51' W 076°18'0 0.1
2017-Oct-16 17:00N 36°51' W 076°18'0 0.0
2017-Oct-16 16:30N 36°51' W 076°18'26658.0
2017-Oct-16 16:30N 36°49' W 076°17'2 3.7
2017-Oct-16 16:00N 36°51' W 076°18'0 0.0
2017-Oct-16 15:30N 36°51' W 076°18'072.2
2017-Oct-16 15:30N 36°51' W 076°18'0 0.1
2017-Oct-16 15:00N 36°51' W 076°18'064.8
2017-Oct-16 15:00N 36°51' W 076°18'0 0.0
2017-Oct-16 14:30N 36°51' W 076°18'0 0.1
2017-Oct-16 14:00N 36°51' W 076°18'0 0.0
2017-Oct-16 13:30N 36°51' W 076°18'0 2.7
2017-Oct-16 13:29N 36°51' W 076°18'0 0.1
2017-Oct-16 13:00N 36°51' W 076°18'0195.2
2017-Oct-16 13:00N 36°51' W 076°18'0 0.1
2017-Oct-16 12:30N 36°51' W 076°18'0194.4
2017-Oct-16 12:30N 36°51' W 076°18'0 0.1
2017-Oct-16 12:00N 36°51' W 076°18'2480.8
2017-Oct-16 12:00N 36°50' W 076°17'2 3.7
2017-Oct-16 11:30N 36°51' W 076°19'0143.3
2017-Oct-16 11:30N 36°51' W 076°19'0 0.0
2017-Oct-16 11:00N 36°51' W 076°19'0 0.0
2017-Oct-16 08:38N 36°51' W 076°19'0 0.0
2017-Oct-16 08:21N 36°51' W 076°19'0 0.0
2017-Oct-16 07:55N 36°51' W 076°19'0 0.0
2017-Oct-16 07:21N 36°51' W 076°19'0 0.0
2017-Oct-16 06:56N 36°51' W 076°19'0 0.0
2017-Oct-16 03:35N 36°51' W 076°19'0 0.0
2017-Oct-15 20:53N 36°51' W 076°19'0 0.0
2017-Oct-15 14:40N 36°51' W 076°19'0 0.0
2017-Oct-15 06:39N 36°51' W 076°19'0 0.0
2017-Oct-15 06:30N 36°51' W 076°19'0 0.0
2017-Oct-15 03:28N 36°51' W 076°19'0 0.0
2017-Oct-15 02:56N 36°51' W 076°19'0 0.0
2017-Oct-15 02:30N 36°51' W 076°19'0 0.0
2017-Oct-15 01:59N 36°51' W 076°19'0 0.0
2017-Oct-15 01:30N 36°51' W 076°19'0 0.0
2017-Oct-15 00:57N 36°51' W 076°19'0 0.0
2017-Oct-14 21:33N 36°51' W 076°19'0 0.0
2017-Oct-14 21:23N 36°51' W 076°19'0 0.0
2017-Oct-14 20:59N 36°51' W 076°19'0 0.0
2017-Oct-14 20:28N 36°51' W 076°19'1 2.5
2017-Oct-14 20:00N 36°50' W 076°18'0 0.4
2017-Oct-14 19:30N 36°50' W 076°17'0 0.0
2017-Oct-14 19:00N 36°50' W 076°17'0 0.0
2017-Oct-14 18:30N 36°50' W 076°17'0 0.0
2017-Oct-14 18:00N 36°50' W 076°17'0 0.0
2017-Oct-14 17:30N 36°50' W 076°17'1 1.9
2017-Oct-14 17:00N 36°51' W 076°18'0 0.2
2017-Oct-14 16:30N 36°51' W 076°18'1 1.4
2017-Oct-14 16:00N 36°51' W 076°19'0 0.0
2017-Oct-14 15:30N 36°51' W 076°19'0 0.0
2017-Oct-14 15:00N 36°51' W 076°19'0 0.0
2017-Oct-14 14:30N 36°51' W 076°19'0 0.0
2017-Oct-14 14:00N 36°51' W 076°19'0 0.0
2017-Oct-14 13:30N 36°51' W 076°19'0 0.0
2017-Oct-14 13:00N 36°51' W 076°19'0 0.0
2017-Oct-14 12:30N 36°51' W 076°19'0 0.0
2017-Oct-14 12:00N 36°51' W 076°19'0 0.0
2017-Oct-14 11:30N 36°51' W 076°19'0 0.0
2017-Oct-14 11:00N 36°51' W 076°19'0 0.0
2017-Oct-14 10:30N 36°51' W 076°19'0 0.0
2017-Oct-14 10:00N 36°51' W 076°19'0 0.0
2017-Oct-14 09:30N 36°51' W 076°19'0 0.0
2017-Oct-14 09:00N 36°51' W 076°19'0 0.0
2017-Oct-14 08:30N 36°51' W 076°19'0 0.0
2017-Oct-14 08:00N 36°51' W 076°19'0 0.0
2017-Oct-14 07:30N 36°51' W 076°19'0 0.0
2017-Oct-14 07:00N 36°51' W 076°19'0 0.0
2017-Oct-14 06:30N 36°51' W 076°19'0 0.0
2017-Oct-14 06:00N 36°51' W 076°19'0 0.0
2017-Oct-14 05:30N 36°51' W 076°19'0 0.0
2017-Oct-14 05:00N 36°51' W 076°19'0 0.0
2017-Oct-14 04:30N 36°51' W 076°19'0 0.0
2017-Oct-14 04:00N 36°51' W 076°19'0 0.0
2017-Oct-14 03:30N 36°51' W 076°19'0 0.0
2017-Oct-14 03:00N 36°51' W 076°19'0 0.0
2017-Oct-14 02:30N 36°51' W 076°19'0 0.0
2017-Oct-14 02:00N 36°51' W 076°19'0 0.0
2017-Oct-14 01:26N 36°51' W 076°19'0 0.0
2017-Oct-14 01:00N 36°51' W 076°19'0 0.0
2017-Oct-14 00:20N 36°51' W 076°19'0 0.0
2017-Oct-13 23:59N 36°51' W 076°19'0 0.0
2017-Oct-13 23:30N 36°51' W 076°19'0 0.0
2017-Oct-13 23:00N 36°51' W 076°19'0 0.0
2017-Oct-13 22:30N 36°51' W 076°19'0 0.0
2017-Oct-13 22:00N 36°51' W 076°19'0 0.0
2017-Oct-13 21:30N 36°51' W 076°19'0 0.0
2017-Oct-13 21:00N 36°51' W 076°19'0 0.0
2017-Oct-13 20:30N 36°51' W 076°19'0 0.0
2017-Oct-13 20:00N 36°51' W 076°19'0 0.6
2017-Oct-13 19:41N 36°51' W 076°19'1 5.0
2017-Oct-13 19:31N 36°51' W 076°18'11179.9
2017-Oct-13 19:30N 36°51' W 076°19'2 3.8
2017-Oct-13 19:00N 36°49' W 076°17'282.0
2017-Oct-13 18:59N 36°51' W 076°19'0 0.8
2017-Oct-13 18:30N 36°51' W 076°18'0266.6
2017-Oct-13 18:30N 36°51' W 076°18'0 0.1
2017-Oct-13 18:01N 36°51' W 076°18'030.4
2017-Oct-13 18:00N 36°51' W 076°18'0 0.1
2017-Oct-13 17:31N 36°51' W 076°18'0 3.1
2017-Oct-13 17:30N 36°51' W 076°18'1 1.5
2017-Oct-13 17:01N 36°52' W 076°19'010.8
2017-Oct-13 17:00N 36°52' W 076°19'0 0.1
2017-Oct-13 16:31N 36°52' W 076°19'096.6
2017-Oct-13 16:31N 36°52' W 076°19'0 0.0
2017-Oct-13 16:01N 36°52' W 076°19'0 0.0
2017-Oct-13 15:31N 36°52' W 076°19'0 0.1
2017-Oct-13 15:00N 36°52' W 076°19'0 2.8
2017-Oct-13 15:00N 36°52' W 076°19'0 0.1
2017-Oct-13 14:30N 36°52' W 076°19'0122.2
2017-Oct-13 14:30N 36°52' W 076°19'0 0.9
2017-Oct-13 14:00N 36°51' W 076°18'0 5.1
2017-Oct-13 14:00N 36°51' W 076°18'0 0.6
2017-Oct-13 13:31N 36°51' W 076°18'0 9.5
2017-Oct-13 13:30N 36°51' W 076°18'0 0.1
2017-Oct-13 13:00N 36°51' W 076°18'094.8
2017-Oct-13 13:00N 36°51' W 076°18'0 0.1
2017-Oct-13 12:31N 36°51' W 076°18'094.8
2017-Oct-13 12:31N 36°51' W 076°18'0 0.0
2017-Oct-13 12:01N 36°51' W 076°18'056.8
2017-Oct-13 12:00N 36°51' W 076°18'1 1.5
2017-Oct-13 11:30N 36°51' W 076°19'0 0.0
2017-Oct-13 11:01N 36°51' W 076°19'0 0.0
2017-Oct-13 10:30N 36°51' W 076°19'0 0.0
2017-Oct-13 10:01N 36°51' W 076°19'0 0.0
2017-Oct-13 09:30N 36°51' W 076°19'0 0.0
2017-Oct-13 09:00N 36°51' W 076°19'0 0.0
2017-Oct-13 08:30N 36°51' W 076°19'0 0.0
2017-Oct-13 08:01N 36°51' W 076°19'0 0.0
2017-Oct-13 07:31N 36°51' W 076°19'0 0.0
2017-Oct-13 07:01N 36°51' W 076°19'0 0.0
2017-Oct-13 06:31N 36°51' W 076°19'0 0.0
2017-Oct-13 06:01N 36°51' W 076°19'0 0.0
2017-Oct-13 05:30N 36°51' W 076°19'0 0.0
2017-Oct-13 05:01N 36°51' W 076°19'0 0.0
2017-Oct-13 04:30N 36°51' W 076°19'0 0.0
2017-Oct-13 04:00N 36°51' W 076°19'0 0.0
2017-Oct-13 03:31N 36°51' W 076°19'0 0.0
2017-Oct-13 03:01N 36°51' W 076°19'0 0.0
2017-Oct-13 02:30N 36°51' W 076°19'0 0.0
2017-Oct-13 02:00N 36°51' W 076°19'0 0.0
2017-Oct-13 01:31N 36°51' W 076°19'0 0.0
2017-Oct-13 01:01N 36°51' W 076°19'0 0.0
2017-Oct-13 00:31N 36°51' W 076°19'0 0.0
2017-Oct-13 00:00N 36°51' W 076°19'0 0.0
2017-Oct-12 23:30N 36°51' W 076°19'0 0.0
2017-Oct-12 23:00N 36°51' W 076°19'0 0.0
2017-Oct-12 22:30N 36°51' W 076°19'0 0.0
2017-Oct-12 22:01N 36°51' W 076°19'0 0.0
2017-Oct-12 21:30N 36°51' W 076°19'0 0.0
2017-Oct-12 21:00N 36°51' W 076°19'0 0.0
2017-Oct-12 20:31N 36°51' W 076°19'0 0.0
2017-Oct-12 20:00N 36°51' W 076°19'220.1
2017-Oct-12 19:55N 36°49' W 076°17'0 0.0
2017-Oct-12 19:31N 36°49' W 076°17'2688.4
2017-Oct-12 19:30N 36°51' W 076°19'2 3.9
2017-Oct-12 19:01N 36°49' W 076°17'2 3.8
2017-Oct-12 18:31N 36°51' W 076°19'0 0.0
2017-Oct-12 18:01N 36°51' W 076°19'0 0.0
2017-Oct-12 17:31N 36°51' W 076°19'0 0.0
2017-Oct-12 17:01N 36°51' W 076°19'0 0.0
2017-Oct-12 16:31N 36°51' W 076°19'0 0.0
2017-Oct-12 16:01N 36°51' W 076°19'0 0.0
2017-Oct-12 15:31N 36°51' W 076°19'218.1
2017-Oct-12 15:24N 36°49' W 076°17'0 0.0
2017-Oct-12 15:00N 36°49' W 076°17'2982.7
2017-Oct-12 15:00N 36°51' W 076°19'2 3.8
2017-Oct-12 14:30N 36°49' W 076°17'2984.9
2017-Oct-12 14:30N 36°51' W 076°19'0 0.0
2017-Oct-12 14:01N 36°51' W 076°19'23441.4
2017-Oct-12 14:00N 36°49' W 076°17'0 0.0
2017-Oct-12 13:30N 36°49' W 076°17'2491.6
2017-Oct-12 13:30N 36°51' W 076°19'2 3.9
2017-Oct-12 13:00N 36°49' W 076°17'21378.8
2017-Oct-12 13:00N 36°51' W 076°19'2 3.8
2017-Oct-12 12:30N 36°49' W 076°17'21374.9
2017-Oct-12 12:30N 36°51' W 076°19'2 3.8
2017-Oct-12 12:01N 36°49' W 076°17'21146.5
2017-Oct-12 12:00N 36°51' W 076°19'1 2.0
2017-Oct-12 11:30N 36°51' W 076°18'1893.5
2017-Oct-12 11:30N 36°51' W 076°19'0 0.0
2017-Oct-12 11:00N 36°51' W 076°19'0 0.0
2017-Oct-12 10:30N 36°51' W 076°19'0 0.0
2017-Oct-12 10:00N 36°51' W 076°19'0 0.0
2017-Oct-12 09:29N 36°51' W 076°19'0 0.0
2017-Oct-12 09:00N 36°51' W 076°19'0 0.0
2017-Oct-12 08:30N 36°51' W 076°19'0 0.0
2017-Oct-12 08:00N 36°51' W 076°19'0 0.0
2017-Oct-12 07:29N 36°51' W 076°19'0 0.0
2017-Oct-12 06:59N 36°51' W 076°19'0 0.0
2017-Oct-12 06:29N 36°51' W 076°19'0 0.0
2017-Oct-11 23:06N 36°51' W 076°19'0 0.0
2017-Oct-11 23:00N 36°51' W 076°19'0 0.0
2017-Oct-11 22:29N 36°51' W 076°19'0 0.0
2017-Oct-11 21:55N 36°51' W 076°19'0 0.0
2017-Oct-11 21:30N 36°51' W 076°19'0 0.0
2017-Oct-11 21:00N 36°51' W 076°19'0 0.0
2017-Oct-11 20:26N 36°51' W 076°19'0 0.0
2017-Oct-11 19:57N 36°51' W 076°19'0 0.1
2017-Oct-11 19:37N 36°51' W 076°19'0 0.2
2017-Oct-11 19:30N 36°51' W 076°19'0 3.4
2017-Oct-11 19:27N 36°51' W 076°19'0 0.4
2017-Oct-11 18:59N 36°51' W 076°19'0 0.0
2017-Oct-11 18:30N 36°51' W 076°19'153.1
2017-Oct-11 18:29N 36°51' W 076°18'1 1.2
2017-Oct-11 17:53N 36°51' W 076°19'12618.3
2017-Oct-11 17:53N 36°51' W 076°18'1 1.9
2017-Oct-11 17:30N 36°51' W 076°19'152.1
2017-Oct-11 17:30N 36°51' W 076°18'1 1.5
2017-Oct-11 17:00N 36°51' W 076°19'121.3
2017-Oct-11 16:58N 36°51' W 076°18'1 0.0
2017-Oct-11 00:00N 36°51' W 076°19'0 0.3
2017-Oct-10 23:57N 36°51' W 076°19'0 0.0
2017-Oct-10 23:30N 36°51' W 076°19'0 0.2
2017-Oct-10 23:28N 36°51' W 076°19'0 0.0
2017-Oct-10 23:00N 36°51' W 076°19'0 0.1
2017-Oct-10 22:53N 36°51' W 076°19'0 0.0
2017-Oct-10 22:28N 36°51' W 076°19'0 0.5
2017-Oct-10 22:27N 36°51' W 076°19'0 0.0
2017-Oct-10 22:00N 36°51' W 076°19'0 0.1
2017-Oct-10 21:55N 36°51' W 076°19'0 0.0
2017-Oct-10 21:30N 36°51' W 076°19'0 0.1
2017-Oct-10 21:23N 36°51' W 076°19'0 0.0
2017-Oct-10 20:59N 36°51' W 076°19'0 0.6
2017-Oct-10 20:59N 36°51' W 076°19'0 0.0
2017-Oct-10 20:30N 36°51' W 076°19'0 0.1
2017-Oct-10 20:25N 36°51' W 076°19'0 0.0
2017-Oct-10 19:59N 36°51' W 076°19'0 0.2
2017-Oct-10 19:55N 36°51' W 076°19'0 0.0
2017-Oct-10 19:30N 36°51' W 076°19'010.4
2017-Oct-10 19:30N 36°51' W 076°19'0 0.6
2017-Oct-10 19:00N 36°51' W 076°19'0509.5
2017-Oct-10 19:00N 36°51' W 076°19'0 0.0
2017-Oct-10 18:29N 36°51' W 076°19'1 2.6
2017-Oct-10 18:12N 36°51' W 076°18'0 0.0
2017-Oct-10 17:59N 36°51' W 076°18'1519.2
2017-Oct-10 17:59N 36°51' W 076°19'1 1.5
2017-Oct-10 17:30N 36°51' W 076°18'1860.1
2017-Oct-10 17:30N 36°51' W 076°19'0 0.0
2017-Oct-10 17:00N 36°51' W 076°19'1 5.4
2017-Oct-10 16:52N 36°51' W 076°18'1 2.0
2017-Oct-10 16:30N 36°51' W 076°19'0 0.0
2017-Oct-10 15:55N 36°51' W 076°19'1 2.0
2017-Oct-10 15:34N 36°51' W 076°18'1 9.3
2017-Oct-10 15:30N 36°51' W 076°19'118.3
2017-Oct-10 15:26N 36°50' W 076°18'2 5.2
2017-Oct-10 15:00N 36°48' W 076°17'1 1.2
2017-Oct-10 13:57N 36°49' W 076°17'0 0.0
2017-Oct-10 13:30N 36°49' W 076°17'0 0.1
2017-Oct-10 12:53N 36°49' W 076°17'1 3.4
2017-Oct-10 12:29N 36°48' W 076°17'5 5.5
2017-Oct-10 11:38N 36°52' W 076°20'2 6.0
2017-Oct-10 11:23N 36°51' W 076°19'0 0.3
2017-Oct-10 11:00N 36°51' W 076°19'0 0.0
2017-Oct-10 10:29N 36°51' W 076°19'0 0.0
2017-Oct-10 09:59N 36°51' W 076°19'0 0.0
2017-Oct-10 09:22N 36°51' W 076°19'0 0.0
2017-Oct-10 09:00N 36°51' W 076°19'0 0.0
2017-Oct-10 08:29N 36°51' W 076°19'0 0.0
2017-Oct-10 07:57N 36°51' W 076°19'0 0.0
2017-Oct-10 07:29N 36°51' W 076°19'0 0.0
2017-Oct-10 06:59N 36°51' W 076°19'0 0.0
2017-Oct-10 06:31N 36°51' W 076°19'3 0.1
2017-Oct-09 06:16N 36°48' W 076°17'35555.5
2017-Oct-09 06:16N 36°51' W 076°19'0 0.0
2017-Oct-09 04:37N 36°51' W 076°19'31388.9
2017-Oct-09 04:37N 36°48' W 076°17'0 0.0
2017-Oct-09 04:29N 36°48' W 076°17'3 6.1
2017-Oct-09 03:59N 36°51' W 076°19'3236.4
2017-Oct-09 03:58N 36°48' W 076°17'3 6.8
2017-Oct-09 03:31N 36°51' W 076°19'31010.1
2017-Oct-09 03:30N 36°48' W 076°17'0 0.0
2017-Oct-09 02:56N 36°48' W 076°17'3150.3
2017-Oct-09 02:55N 36°51' W 076°19'0 0.0
2017-Oct-09 02:29N 36°51' W 076°19'342.0
2017-Oct-09 02:24N 36°48' W 076°17'0 0.0
2017-Oct-09 01:59N 36°48' W 076°17'311130.4
2017-Oct-09 01:59N 36°51' W 076°19'0 0.0
2017-Oct-09 01:28N 36°51' W 076°19'3241.4
2017-Oct-09 01:27N 36°48' W 076°17'3 6.5
2017-Oct-09 00:59N 36°51' W 076°19'3113.3
2017-Oct-09 00:57N 36°48' W 076°17'3 6.9
2017-Oct-09 00:30N 36°51' W 076°19'333.1
2017-Oct-09 00:25N 36°48' W 076°17'0 0.0
2017-Oct-09 00:00N 36°48' W 076°17'311103.4
2017-Oct-09 00:00N 36°51' W 076°19'0 0.0
2017-Oct-08 23:28N 36°51' W 076°19'326.5
2017-Oct-08 23:21N 36°48' W 076°17'3 8.8
2017-Oct-08 23:00N 36°51' W 076°19'393.4
2017-Oct-08 22:58N 36°48' W 076°17'3 6.4
2017-Oct-08 22:29N 36°51' W 076°19'338.2
2017-Oct-08 22:24N 36°48' W 076°17'3 7.6
2017-Oct-08 22:00N 36°51' W 076°19'31589.0
2017-Oct-08 22:00N 36°48' W 076°17'3 6.4
2017-Oct-08 21:30N 36°51' W 076°19'330.2
2017-Oct-08 21:24N 36°48' W 076°17'0 0.0
2017-Oct-08 21:00N 36°48' W 076°17'3483.1
2017-Oct-08 21:00N 36°51' W 076°19'0 0.0
2017-Oct-08 20:30N 36°51' W 076°19'325.8
2017-Oct-08 20:23N 36°48' W 076°17'3 8.3
2017-Oct-08 20:01N 36°51' W 076°19'0 0.0
2017-Oct-08 19:26N 36°51' W 076°19'3161.4
2017-Oct-08 19:25N 36°48' W 076°17'3 7.5
2017-Oct-08 19:00N 36°51' W 076°19'311103.4
2017-Oct-08 19:00N 36°48' W 076°17'0 0.0
2017-Oct-08 18:30N 36°48' W 076°17'311103.4
2017-Oct-08 18:30N 36°51' W 076°19'0 0.0
2017-Oct-08 18:00N 36°51' W 076°19'3138.8
2017-Oct-08 17:59N 36°48' W 076°17'0 0.0
2017-Oct-08 17:31N 36°48' W 076°17'311084.0
2017-Oct-08 17:31N 36°51' W 076°19'0 0.0
2017-Oct-08 16:58N 36°51' W 076°19'3138.9
2017-Oct-08 16:57N 36°48' W 076°17'3 7.1
2017-Oct-08 16:31N 36°51' W 076°19'2157.4
2017-Oct-08 16:30N 36°49' W 076°17'2 4.1
2017-Oct-08 15:59N 36°51' W 076°19'115.1
2017-Oct-08 15:54N 36°50' W 076°18'1 3.0
2017-Oct-08 15:29N 36°51' W 076°19'223.8
2017-Oct-08 15:25N 36°50' W 076°18'2 3.8
2017-Oct-08 15:00N 36°51' W 076°19'0 0.0
2017-Oct-08 14:29N 36°51' W 076°19'0 0.0
2017-Oct-08 14:00N 36°51' W 076°19'0 0.0
2017-Oct-08 13:28N 36°51' W 076°19'0 0.0
2017-Oct-08 13:00N 36°51' W 076°19'1 2.3
2017-Oct-08 12:28N 36°50' W 076°19'1 2.6
2017-Oct-08 12:00N 36°51' W 076°19'0 0.0
2017-Oct-08 11:28N 36°51' W 076°19'0 0.0
2017-Oct-08 11:01N 36°51' W 076°19'0 0.0
2017-Oct-08 10:25N 36°51' W 076°19'0 0.0
2017-Oct-08 10:00N 36°51' W 076°19'0 0.0
2017-Oct-08 09:30N 36°51' W 076°19'0 0.0
2017-Oct-08 08:57N 36°51' W 076°19'0 0.0
2017-Oct-08 08:30N 36°51' W 076°19'0 0.0
2017-Oct-08 07:59N 36°51' W 076°19'0 0.0
2017-Oct-08 07:29N 36°51' W 076°19'0 0.0
2017-Oct-08 06:59N 36°51' W 076°19'0 0.0
2017-Oct-08 06:30N 36°51' W 076°19'0 0.0
2017-Oct-08 05:58N 36°51' W 076°19'0 0.0
2017-Oct-08 05:25N 36°51' W 076°19'0 0.0
2017-Oct-07 22:38N 36°51' W 076°19'0 0.0
2017-Oct-07 22:26N 36°51' W 076°19'0 0.0
2017-Oct-07 22:00N 36°51' W 076°19'0 0.0
2017-Oct-07 21:31N 36°51' W 076°19'3 9.4
2017-Oct-07 21:11N 36°48' W 076°17'318.6
2017-Oct-07 21:00N 36°51' W 076°19'31861.4
2017-Oct-07 21:00N 36°48' W 076°17'3 6.2
2017-Oct-07 20:31N 36°51' W 076°19'0 0.0
2017-Oct-07 20:01N 36°51' W 076°19'0 0.0
2017-Oct-07 19:31N 36°51' W 076°19'0 0.0
2017-Oct-07 19:01N 36°51' W 076°19'0 0.0
2017-Oct-07 18:31N 36°51' W 076°19'0 0.0
2017-Oct-07 18:01N 36°51' W 076°19'0 0.0
2017-Oct-07 17:31N 36°51' W 076°19'0 0.0
2017-Oct-07 17:01N 36°51' W 076°19'0 0.0
2017-Oct-07 16:31N 36°51' W 076°19'0 0.0
2017-Oct-07 16:01N 36°51' W 076°19'0 0.0
2017-Oct-07 15:30N 36°51' W 076°19'0 0.0
2017-Oct-07 15:01N 36°51' W 076°19'0 0.0
2017-Oct-07 14:30N 36°51' W 076°19'0 0.0
2017-Oct-07 14:01N 36°51' W 076°19'0 0.0
2017-Oct-07 13:31N 36°51' W 076°19'0 0.0
2017-Oct-07 13:00N 36°51' W 076°19'0 0.0
2017-Oct-07 12:31N 36°51' W 076°19'0 0.0
2017-Oct-07 12:01N 36°51' W 076°19'0 0.0
2017-Oct-07 11:31N 36°51' W 076°19'0 0.0
2017-Oct-07 11:00N 36°51' W 076°19'0 0.0
2017-Oct-07 10:31N 36°51' W 076°19'0 0.0
2017-Oct-07 10:01N 36°51' W 076°19'0 0.0
2017-Oct-07 09:31N 36°51' W 076°19'0 0.0
2017-Oct-07 09:01N 36°51' W 076°19'0 0.0
2017-Oct-07 08:31N 36°51' W 076°19'0 0.0
2017-Oct-07 08:01N 36°51' W 076°19'0 0.0
2017-Oct-07 07:31N 36°51' W 076°19'0 0.0
2017-Oct-07 07:01N 36°51' W 076°19'0 0.0
2017-Oct-07 06:31N 36°51' W 076°19'0 0.0
2017-Oct-07 06:01N 36°51' W 076°19'0 0.0
2017-Oct-07 05:30N 36°51' W 076°19'  

Dump ship's entire track history